Time;durP1;ratioP1;P1;durP2;ratioP2;P2;SDS_P1;SDS_P2;PMS_P1;PMS_P2;Temp;Humidity;BMP_temperature;BMP_pressure;BME280_temperature;BME280_humidity;BME280_pressure;Samples;Min_cycle;Max_cycle;Signal;HPM_P1;HPM_P2
2023/05/04 00:00:04;;;;;;;23.30;10.18;;;;;;;;;;5071186;28;20357;-60
2023/05/04 00:02:31;;;;;;;27.63;11.25;;;;;;;;;;5071065;28;20271;-60
2023/05/04 00:04:57;;;;;;;23.77;12.00;;;;;;;;;;5071145;28;20377;-61
2023/05/04 00:07:23;;;;;;;26.15;11.90;;;;;;;;;;5071252;28;20032;-60
2023/05/04 00:09:49;;;;;;;28.85;11.57;;;;;;;;;;5071202;28;20024;-60
2023/05/04 00:12:16;;;;;;;28.05;12.15;;;;;;;;;;5071040;28;20174;-59
2023/05/04 00:14:42;;;;;;;24.55;11.73;;;;;;;;;;5071243;28;20094;-60
2023/05/04 00:17:08;;;;;;;28.05;11.88;;;;;;;;;;5071031;28;20109;-62
2023/05/04 00:19:36;;;;;;;23.63;11.93;;;;;;;;;;5074355;28;20091;-60
2023/05/04 00:22:02;;;;;;;24.73;12.40;;;;;;;;;;5075150;28;20027;-59
2023/05/04 00:24:28;;;;;;;24.55;11.70;;;;;;;;;;5075073;28;20078;-60
2023/05/04 00:26:54;;;;;;;30.23;12.80;;;;;;;;;;5074868;28;20095;-60
2023/05/04 00:29:20;;;;;;;29.75;12.93;;;;;;;;;;5074888;28;20071;-60
2023/05/04 00:31:47;;;;;;;29.13;12.98;;;;;;;;;;5075004;28;20086;-59
2023/05/04 00:34:14;;;;;;;27.55;12.90;;;;;;;;;;5074871;28;20466;-60
2023/05/04 00:36:41;;;;;;;26.65;11.77;;;;;;;;;;5074791;28;20416;-60
2023/05/04 00:39:07;;;;;;;25.40;12.43;;;;;;;;;;5074598;28;20020;-59
2023/05/04 00:41:33;;;;;;;30.67;13.35;;;;;;;;;;5074528;28;20104;-60
2023/05/04 00:44:01;;;;;;;28.50;13.10;;;;;;;;;;5074625;28;20121;-59
2023/05/04 00:46:28;;;;;;;27.38;11.90;;;;;;;;;;5074802;28;20174;-60
2023/05/04 00:48:54;;;;;;;27.60;12.60;;;;;;;;;;5074544;28;20029;-61
2023/05/04 00:51:20;;;;;;;32.13;13.70;;;;;;;;;;5074403;28;20481;-60
2023/05/04 00:53:47;;;;;;;30.10;12.65;;;;;;;;;;5074443;28;20043;-61
2023/05/04 00:56:15;;;;;;;30.20;13.88;;;;;;;;;;5074162;28;20081;-59
2023/05/04 00:58:41;;;;;;;27.58;12.80;;;;;;;;;;5074376;28;20051;-61
2023/05/04 01:01:07;;;;;;;28.10;12.63;;;;;;;;;;5074390;28;20029;-60
2023/05/04 01:03:33;;;;;;;28.25;13.50;;;;;;;;;;5073980;28;20033;-61
2023/05/04 01:05:59;;;;;;;24.83;13.60;;;;;;;;;;5074212;28;20025;-59
2023/05/04 01:08:29;;;;;;;25.45;13.88;;;;;;;;;;5072881;28;20469;-60
2023/05/04 01:11:09;;;;;;;28.63;13.77;;;;;;;;;;5074082;28;20027;-59
2023/05/04 01:13:37;;;;;;;24.17;12.70;;;;;;;;;;5074094;28;20546;-60
2023/05/04 01:16:04;;;;;;;25.85;12.98;;;;;;;;;;5074160;28;20362;-59
2023/05/04 01:18:30;;;;;;;34.70;13.60;;;;;;;;;;5073857;28;20036;-60
2023/05/04 01:20:56;;;;;;;28.23;12.68;;;;;;;;;;5073586;28;20071;-60
2023/05/04 01:23:22;;;;;;;27.23;12.90;;;;;;;;;;5073657;28;20392;-60
2023/05/04 01:25:51;;;;;;;37.85;13.88;;;;;;;;;;5073938;28;20060;-59
2023/05/04 01:28:25;;;;;;;33.33;14.38;;;;;;;;;;5073923;28;20149;-60
2023/05/04 01:30:53;;;;;;;33.92;13.60;;;;;;;;;;5073629;28;20082;-60
2023/05/04 01:33:20;;;;;;;31.02;13.68;;;;;;;;;;5073728;28;20033;-60
2023/05/04 01:35:46;;;;;;;27.13;13.27;;;;;;;;;;5073581;28;20020;-60
2023/05/04 01:38:13;;;;;;;25.73;13.50;;;;;;;;;;5073790;28;20028;-60
2023/05/04 01:40:39;;;;;;;30.45;13.68;;;;;;;;;;5073682;28;20519;-61
2023/05/04 01:43:05;;;;;;;33.95;14.68;;;;;;;;;;5073426;28;20127;-60
2023/05/04 01:45:31;;;;;;;24.52;12.93;;;;;;;;;;5073450;28;20063;-60
2023/05/04 01:47:57;;;;;;;35.78;14.27;;;;;;;;;;5073163;28;20055;-60
2023/05/04 01:50:23;;;;;;;29.88;14.57;;;;;;;;;;5073126;28;20031;-60
2023/05/04 01:52:49;;;;;;;31.38;14.30;;;;;;;;;;5073595;28;20024;-60
2023/05/04 01:55:15;;;;;;;29.60;14.57;;;;;;;;;;5073630;28;20030;-60
2023/05/04 01:57:41;;;;;;;30.60;14.27;;;;;;;;;;5073230;28;20037;-60
2023/05/04 02:00:08;;;;;;;27.63;14.07;;;;;;;;;;5073096;28;20487;-60
2023/05/04 02:02:34;;;;;;;30.58;14.38;;;;;;;;;;5073114;28;20031;-60
2023/05/04 02:05:00;;;;;;;29.65;13.77;;;;;;;;;;5073114;28;20017;-59
2023/05/04 02:07:26;;;;;;;31.75;15.68;;;;;;;;;;5073402;28;20093;-59
2023/05/04 02:09:52;;;;;;;39.20;15.40;;;;;;;;;;5072992;28;20424;-60
2023/05/04 02:12:18;;;;;;;29.65;14.88;;;;;;;;;;5071513;28;20470;-59
2023/05/04 02:14:44;;;;;;;29.15;15.55;;;;;;;;;;5072858;28;20033;-60
2023/05/04 02:17:10;;;;;;;27.95;14.65;;;;;;;;;;5071686;28;20024;-59
2023/05/04 02:19:36;;;;;;;32.22;15.30;;;;;;;;;;5072573;28;20031;-61
2023/05/04 02:22:02;;;;;;;29.13;14.70;;;;;;;;;;5072767;28;20032;-60
2023/05/04 02:24:28;;;;;;;32.83;15.30;;;;;;;;;;5072657;28;20095;-60
2023/05/04 02:26:54;;;;;;;35.20;15.30;;;;;;;;;;5072494;28;20021;-60
2023/05/04 02:29:20;;;;;;;30.85;15.20;;;;;;;;;;5072278;28;20462;-59
2023/05/04 02:31:46;;;;;;;37.40;15.60;;;;;;;;;;5072442;28;20021;-59
2023/05/04 02:34:12;;;;;;;32.20;16.55;;;;;;;;;;5072809;28;20055;-60
2023/05/04 02:36:38;;;;;;;37.10;15.68;;;;;;;;;;5072553;28;20017;-60
2023/05/04 02:39:04;;;;;;;30.65;15.00;;;;;;;;;;5072126;28;20024;-59
2023/05/04 02:41:30;;;;;;;30.38;15.40;;;;;;;;;;5071576;28;20385;-60
2023/05/04 02:43:56;;;;;;;33.83;15.98;;;;;;;;;;5072218;28;20511;-60
2023/05/04 02:46:24;;;;;;;31.17;16.20;;;;;;;;;;5072273;28;20024;-60
2023/05/04 02:48:50;;;;;;;38.67;15.95;;;;;;;;;;5072396;28;20042;-61
2023/05/04 02:51:16;;;;;;;39.63;17.13;;;;;;;;;;5071780;28;20048;-60
2023/05/04 02:53:42;;;;;;;30.40;16.17;;;;;;;;;;5072236;28;20024;-60
2023/05/04 02:56:08;;;;;;;33.17;15.45;;;;;;;;;;5072095;28;20366;-60
2023/05/04 02:58:34;;;;;;;31.67;14.90;;;;;;;;;;5070764;28;20072;-60
2023/05/04 03:01:00;;;;;;;29.02;15.63;;;;;;;;;;5070634;28;20125;-62
2023/05/04 03:03:26;;;;;;;34.83;17.02;;;;;;;;;;5071675;28;20044;-60
2023/05/04 03:05:52;;;;;;;31.75;15.77;;;;;;;;;;5071726;28;20023;-61
2023/05/04 03:08:18;;;;;;;37.25;17.15;;;;;;;;;;5071967;28;20052;-60
2023/05/04 03:10:44;;;;;;;35.80;16.65;;;;;;;;;;5071700;28;20466;-60
2023/05/04 03:13:10;;;;;;;32.95;16.38;;;;;;;;;;5071549;28;20086;-61
2023/05/04 03:15:36;;;;;;;29.50;15.82;;;;;;;;;;5071442;28;20020;-59
2023/05/04 03:18:02;;;;;;;33.47;16.75;;;;;;;;;;5071781;28;20038;-60
2023/05/04 03:20:28;;;;;;;39.75;16.10;;;;;;;;;;5071366;28;20025;-60
2023/05/04 03:22:54;;;;;;;34.38;15.95;;;;;;;;;;5071377;28;20036;-60
2023/05/04 03:25:20;;;;;;;35.65;15.82;;;;;;;;;;5071238;28;20020;-61
2023/05/04 03:27:46;;;;;;;32.90;16.45;;;;;;;;;;5071610;28;20056;-61
2023/05/04 03:30:12;;;;;;;33.05;16.60;;;;;;;;;;5071153;28;20045;-60
2023/05/04 03:32:39;;;;;;;33.40;16.98;;;;;;;;;;5071327;28;20098;-60
2023/05/04 03:35:06;;;;;;;35.72;16.38;;;;;;;;;;5071437;28;20062;-59
2023/05/04 03:37:32;;;;;;;34.85;17.20;;;;;;;;;;5071503;28;20025;-60
2023/05/04 03:39:58;;;;;;;31.08;16.10;;;;;;;;;;5071553;28;20043;-61
2023/05/04 03:42:24;;;;;;;34.15;15.93;;;;;;;;;;5071350;28;20153;-59
2023/05/04 03:44:50;;;;;;;29.83;16.83;;;;;;;;;;5071466;28;20029;-60
2023/05/04 03:47:16;;;;;;;31.40;16.35;;;;;;;;;;5071342;28;20020;-59
2023/05/04 03:49:42;;;;;;;32.65;16.35;;;;;;;;;;5071182;28;20107;-60
2023/05/04 03:52:08;;;;;;;34.72;16.10;;;;;;;;;;5070635;28;20155;-61
2023/05/04 03:54:34;;;;;;;41.70;17.77;;;;;;;;;;5071037;28;20096;-60
2023/05/04 03:57:03;;;;;;;33.42;16.70;;;;;;;;;;5071350;28;20024;-60
2023/05/04 03:59:29;;;;;;;37.25;17.08;;;;;;;;;;5071185;28;20021;-59
2023/05/04 04:01:55;;;;;;;31.58;16.85;;;;;;;;;;5071016;28;20021;-60
2023/05/04 04:04:21;;;;;;;35.35;16.85;;;;;;;;;;5071385;28;20028;-60
2023/05/04 04:06:47;;;;;;;35.78;17.10;;;;;;;;;;5071227;28;20112;-60
2023/05/04 04:09:13;;;;;;;35.08;16.85;;;;;;;;;;5071041;28;20025;-60
2023/05/04 04:11:39;;;;;;;34.03;17.05;;;;;;;;;;5071232;28;20033;-60
2023/05/04 04:14:05;;;;;;;34.30;17.35;;;;;;;;;;5070982;28;20086;-59
2023/05/04 04:16:31;;;;;;;34.50;16.23;;;;;;;;;;5071165;28;20048;-59
2023/05/04 04:18:57;;;;;;;33.38;17.02;;;;;;;;;;5071066;28;20029;-61
2023/05/04 04:21:23;;;;;;;33.05;17.25;;;;;;;;;;5071436;28;20024;-60
2023/05/04 04:23:49;;;;;;;39.47;17.10;;;;;;;;;;5071207;28;20028;-60
2023/05/04 04:26:15;;;;;;;35.72;17.00;;;;;;;;;;5071092;28;20044;-60
2023/05/04 04:28:43;;;;;;;38.03;16.58;;;;;;;;;;5070631;28;20056;-60
2023/05/04 04:31:09;;;;;;;37.63;17.70;;;;;;;;;;5070939;28;20377;-60
2023/05/04 04:33:35;;;;;;;42.45;17.40;;;;;;;;;;5071020;28;20396;-62
2023/05/04 04:36:01;;;;;;;35.03;17.27;;;;;;;;;;5070804;28;20478;-61
2023/05/04 04:38:27;;;;;;;34.80;17.38;;;;;;;;;;5070632;28;20025;-60
2023/05/04 04:40:53;;;;;;;32.55;16.13;;;;;;;;;;5070672;28;20021;-60
2023/05/04 04:43:19;;;;;;;34.95;16.70;;;;;;;;;;5070604;28;20059;-60
2023/05/04 04:45:46;;;;;;;29.85;16.48;;;;;;;;;;5070729;28;20032;-59
2023/05/04 04:48:12;;;;;;;36.08;17.00;;;;;;;;;;5070674;28;20496;-60
2023/05/04 04:50:39;;;;;;;31.85;16.10;;;;;;;;;;5070655;28;20021;-60
2023/05/04 04:53:05;;;;;;;39.55;17.55;;;;;;;;;;5069401;28;20491;-59
2023/05/04 04:55:31;;;;;;;28.83;14.95;;;;;;;;;;5070583;28;20541;-60
2023/05/04 04:57:57;;;;;;;31.83;15.20;;;;;;;;;;5070672;28;20025;-60
2023/05/04 05:00:25;;;;;;;31.00;16.33;;;;;;;;;;5070675;28;20099;-60
2023/05/04 05:02:51;;;;;;;31.15;15.27;;;;;;;;;;5070514;28;20313;-60
2023/05/04 05:05:17;;;;;;;36.70;16.67;;;;;;;;;;5073393;28;20064;-60
2023/05/04 05:07:43;;;;;;;30.95;16.83;;;;;;;;;;5074015;28;20017;-60
2023/05/04 05:10:09;;;;;;;34.47;15.50;;;;;;;;;;5074040;28;20540;-60
2023/05/04 05:12:35;;;;;;;34.97;16.15;;;;;;;;;;5074191;28;20031;-61
2023/05/04 05:15:03;;;;;;;32.70;16.17;;;;;;;;;;5074170;28;20021;-62
2023/05/04 05:17:29;;;;;;;28.90;15.85;;;;;;;;;;5074286;28;20036;-61
2023/05/04 05:19:55;;;;;;;37.38;17.33;;;;;;;;;;5073909;28;20093;-60
2023/05/04 05:22:22;;;;;;;29.98;15.88;;;;;;;;;;5073750;28;20422;-60
2023/05/04 05:24:48;;;;;;;28.60;15.98;;;;;;;;;;5073946;28;20029;-60
2023/05/04 05:27:14;;;;;;;34.15;15.50;;;;;;;;;;5073803;28;20032;-61
2023/05/04 05:29:40;;;;;;;28.65;15.27;;;;;;;;;;5073845;28;20049;-61
2023/05/04 05:32:06;;;;;;;28.38;14.63;;;;;;;;;;5073975;28;20028;-60
2023/05/04 05:34:33;;;;;;;32.92;16.35;;;;;;;;;;5073438;28;20381;-60
2023/05/04 05:36:59;;;;;;;30.58;16.00;;;;;;;;;;5073822;28;20161;-60
2023/05/04 05:39:25;;;;;;;39.05;15.98;;;;;;;;;;5073805;28;20100;-61
2023/05/04 05:41:55;;;;;;;35.25;16.30;;;;;;;;;;5073929;28;20516;-61
2023/05/04 05:44:21;;;;;;;26.67;14.55;;;;;;;;;;5073405;28;20032;-60
2023/05/04 05:46:47;;;;;;;30.30;16.77;;;;;;;;;;5073778;28;20027;-60
2023/05/04 05:49:13;;;;;;;27.63;14.20;;;;;;;;;;5073182;28;20032;-61
2023/05/04 05:51:40;;;;;;;27.60;14.00;;;;;;;;;;5073456;28;20032;-60
2023/05/04 05:54:06;;;;;;;27.08;14.20;;;;;;;;;;5073288;28;20028;-60
2023/05/04 05:56:32;;;;;;;31.73;14.98;;;;;;;;;;5073598;28;20028;-59
2023/05/04 05:58:58;;;;;;;30.08;14.48;;;;;;;;;;5073288;28;20544;-62
2023/05/04 06:01:25;;;;;;;29.60;13.50;;;;;;;;;;5073314;28;20115;-60
2023/05/04 06:03:51;;;;;;;28.05;14.15;;;;;;;;;;5073031;28;20035;-60
2023/05/04 06:06:17;;;;;;;29.52;14.48;;;;;;;;;;5073068;28;20057;-60
2023/05/04 06:08:43;;;;;;;27.95;14.02;;;;;;;;;;5073075;28;20029;-60
2023/05/04 06:11:10;;;;;;;24.90;13.50;;;;;;;;;;5073387;28;20023;-60
2023/05/04 06:13:36;;;;;;;25.75;13.63;;;;;;;;;;5072962;28;20449;-60
2023/05/04 06:16:02;;;;;;;24.20;13.40;;;;;;;;;;5071882;28;20389;-61
2023/05/04 06:18:28;;;;;;;23.63;13.32;;;;;;;;;;5072757;28;20052;-59
2023/05/04 06:20:58;;;;;;;29.48;13.57;;;;;;;;;;5072645;28;20430;-60
2023/05/04 06:23:25;;;;;;;23.70;13.23;;;;;;;;;;5072621;28;20473;-60
2023/05/04 06:25:51;;;;;;;23.65;12.27;;;;;;;;;;5072942;28;20028;-61
2023/05/04 06:28:17;;;;;;;26.23;13.15;;;;;;;;;;5072502;28;20024;-61
2023/05/04 06:30:43;;;;;;;21.38;12.70;;;;;;;;;;5072633;28;20114;-61
2023/05/04 06:33:09;;;;;;;26.25;13.23;;;;;;;;;;5071062;28;20027;-60
2023/05/04 06:35:35;;;;;;;24.27;13.13;;;;;;;;;;5072473;28;20025;-59
2023/05/04 06:38:02;;;;;;;24.42;12.13;;;;;;;;;;5072690;28;20044;-60
2023/05/04 06:40:28;;;;;;;23.88;11.80;;;;;;;;;;5072525;28;20052;-60
2023/05/04 06:42:54;;;;;;;26.83;12.55;;;;;;;;;;5071923;28;20044;-61
2023/05/04 06:45:20;;;;;;;17.08;10.30;;;;;;;;;;5068814;28;20539;-59
2023/05/04 06:47:46;;;;;;;19.65;10.70;;;;;;;;;;5071948;28;20024;-60
2023/05/04 06:50:13;;;;;;;21.83;11.45;;;;;;;;;;5067640;28;20020;-59
2023/05/04 06:52:40;;;;;;;24.23;10.50;;;;;;;;;;5071416;28;20028;-60
2023/05/04 06:55:06;;;;;;;19.17;10.07;;;;;;;;;;5070571;28;20546;-60
2023/05/04 06:57:32;;;;;;;21.10;10.85;;;;;;;;;;5072008;28;20075;-60
2023/05/04 06:59:58;;;;;;;17.45;10.23;;;;;;;;;;5071247;28;20477;-59
2023/05/04 07:02:25;;;;;;;19.23;10.00;;;;;;;;;;5071974;28;20302;-59
2023/05/04 07:04:51;;;;;;;18.25;10.23;;;;;;;;;;5071775;28;20052;-59
2023/05/04 07:07:17;;;;;;;16.23;9.85;;;;;;;;;;5071976;28;20461;-59
2023/05/04 07:09:45;;;;;;;18.90;9.48;;;;;;;;;;5071686;28;20335;-59
2023/05/04 07:12:11;;;;;;;17.83;9.38;;;;;;;;;;5068552;28;20064;-59
2023/05/04 07:14:37;;;;;;;14.82;8.65;;;;;;;;;;5071736;28;20032;-60
2023/05/04 07:17:04;;;;;;;16.17;8.95;;;;;;;;;;5069976;28;20472;-59
2023/05/04 07:19:30;;;;;;;20.45;9.23;;;;;;;;;;5067437;28;20024;-60
2023/05/04 07:21:56;;;;;;;14.57;8.43;;;;;;;;;;5071677;28;20483;-60
2023/05/04 07:24:22;;;;;;;17.50;8.70;;;;;;;;;;5071732;28;20044;-60
2023/05/04 07:26:48;;;;;;;15.88;8.68;;;;;;;;;;5071522;28;20073;-60
2023/05/04 07:29:14;;;;;;;16.60;8.52;;;;;;;;;;5071468;28;20087;-58
2023/05/04 07:31:40;;;;;;;15.38;8.43;;;;;;;;;;5071426;28;20552;-61
2023/05/04 07:34:06;;;;;;;16.55;8.90;;;;;;;;;;5071187;28;20074;-59
2023/05/04 07:36:34;;;;;;;12.98;8.40;;;;;;;;;;5071359;28;20029;-59
2023/05/04 07:39:00;;;;;;;15.00;8.90;;;;;;;;;;5071608;28;20028;-59
2023/05/04 07:41:26;;;;;;;16.85;8.18;;;;;;;;;;5071236;28;20016;-58
2023/05/04 07:43:52;;;;;;;15.63;8.60;;;;;;;;;;5071203;28;20115;-59
2023/05/04 07:46:18;;;;;;;13.07;8.10;;;;;;;;;;5071697;28;20101;-59
2023/05/04 07:48:44;;;;;;;17.10;8.25;;;;;;;;;;5071646;28;20027;-59
2023/05/04 07:51:14;;;;;;;15.43;8.50;;;;;;;;;;5071062;28;20372;-59
2023/05/04 07:53:41;;;;;;;14.27;7.90;;;;;;;;;;5071411;28;20028;-59
2023/05/04 07:56:08;;;;;;;14.73;8.50;;;;;;;;;;5071073;28;20017;-60
2023/05/04 07:58:34;;;;;;;13.25;7.65;;;;;;;;;;5070005;28;20542;-59
2023/05/04 08:01:00;;;;;;;13.00;7.88;;;;;;;;;;5071031;28;20024;-60
2023/05/04 08:03:26;;;;;;;18.73;8.00;;;;;;;;;;5070902;28;20089;-59
2023/05/04 08:05:52;;;;;;;15.15;7.53;;;;;;;;;;5071251;28;20048;-60
2023/05/04 08:08:18;;;;;;;14.10;7.78;;;;;;;;;;5071304;28;20082;-60
2023/05/04 08:10:44;;;;;;;13.07;8.00;;;;;;;;;;5071122;28;20024;-58
2023/05/04 08:13:10;;;;;;;15.30;8.13;;;;;;;;;;5070991;28;20029;-60
2023/05/04 08:15:36;;;;;;;13.40;7.60;;;;;;;;;;5070921;28;20017;-60
2023/05/04 08:18:03;;;;;;;13.80;7.97;;;;;;;;;;5071147;28;20047;-61
2023/05/04 08:20:29;;;;;;;14.05;8.30;;;;;;;;;;5070910;28;20198;-61
2023/05/04 08:22:55;;;;;;;11.90;7.20;;;;;;;;;;5070889;28;20035;-61
2023/05/04 08:25:21;;;;;;;14.13;8.25;;;;;;;;;;5071088;28;20025;-60
2023/05/04 08:27:47;;;;;;;11.55;7.70;;;;;;;;;;5071020;28;21039;-60
2023/05/04 08:30:14;;;;;;;14.30;8.38;;;;;;;;;;5070667;28;20580;-61
2023/05/04 08:32:40;;;;;;;14.73;8.00;;;;;;;;;;5070869;28;20108;-60
2023/05/04 08:35:06;;;;;;;12.43;8.13;;;;;;;;;;5071023;28;20016;-61
2023/05/04 08:37:32;;;;;;;14.05;7.68;;;;;;;;;;5070751;28;20035;-60
2023/05/04 08:39:59;;;;;;;11.75;7.88;;;;;;;;;;5073303;28;20082;-60
2023/05/04 08:42:28;;;;;;;14.82;8.23;;;;;;;;;;5074558;28;20035;-60
2023/05/04 08:44:57;;;;;;;13.15;8.20;;;;;;;;;;5074634;28;20024;-61
2023/05/04 08:47:24;;;;;;;15.32;8.50;;;;;;;;;;5074700;28;20020;-59
2023/05/04 08:49:52;;;;;;;14.93;7.68;;;;;;;;;;5074311;28;20028;-58
2023/05/04 08:52:18;;;;;;;16.00;8.15;;;;;;;;;;5074631;28;20032;-59
2023/05/04 08:54:44;;;;;;;14.77;7.93;;;;;;;;;;5074259;28;20016;-58
2023/05/04 08:57:11;;;;;;;13.40;7.85;;;;;;;;;;5074474;28;20066;-58
2023/05/04 08:59:37;;;;;;;13.52;7.82;;;;;;;;;;5074288;28;20285;-59
2023/05/04 09:02:03;;;;;;;18.27;8.50;;;;;;;;;;5074264;28;20096;-60
2023/05/04 09:04:30;;;;;;;16.65;7.15;;;;;;;;;;5074302;28;20035;-59
2023/05/04 09:06:57;;;;;;;13.82;7.85;;;;;;;;;;5074257;28;20017;-59
2023/05/04 09:09:25;;;;;;;15.43;7.80;;;;;;;;;;5074119;28;20270;-59
2023/05/04 09:11:52;;;;;;;16.23;8.32;;;;;;;;;;5072571;28;20388;-59
2023/05/04 09:14:18;;;;;;;19.48;8.10;;;;;;;;;;5074083;28;20532;-60
2023/05/04 09:16:44;;;;;;;15.63;7.78;;;;;;;;;;5074536;28;20174;-60
2023/05/04 09:19:20;;;;;;;14.10;7.65;;;;;;;;;;5073848;28;20013;-59
2023/05/04 09:21:48;;;;;;;13.18;7.70;;;;;;;;;;5073827;28;20036;-59
2023/05/04 09:24:24;;;;;;;16.92;7.88;;;;;;;;;;5073854;28;20060;-60
2023/05/04 09:26:50;;;;;;;11.85;7.95;;;;;;;;;;5073901;28;20428;-60
2023/05/04 09:29:16;;;;;;;11.73;7.63;;;;;;;;;;5073721;28;20048;-59
2023/05/04 09:31:43;;;;;;;10.18;7.38;;;;;;;;;;5073869;28;20024;-58
2023/05/04 09:34:10;;;;;;;15.15;8.15;;;;;;;;;;5072464;28;20473;-58
2023/05/04 09:36:37;;;;;;;12.88;7.65;;;;;;;;;;5073707;28;20035;-59
2023/05/04 09:39:10;;;;;;;15.30;8.07;;;;;;;;;;5073645;28;20027;-59
2023/05/04 09:41:36;;;;;;;11.60;7.20;;;;;;;;;;5073683;28;20035;-59
2023/05/04 09:44:03;;;;;;;12.57;7.55;;;;;;;;;;5073498;28;20272;-59
2023/05/04 09:46:29;;;;;;;14.25;7.70;;;;;;;;;;5073365;28;20039;-60
2023/05/04 09:48:56;;;;;;;13.60;7.88;;;;;;;;;;5073335;28;20028;-60
2023/05/04 09:51:23;;;;;;;12.60;8.30;;;;;;;;;;5073282;28;20397;-60
2023/05/04 09:53:49;;;;;;;13.68;8.23;;;;;;;;;;5073234;28;20052;-60
2023/05/04 09:56:34;;;;;;;15.27;8.48;;;;;;;;;;5073371;28;20095;-59
2023/05/04 09:59:00;;;;;;;15.10;8.40;;;;;;;;;;5073314;28;20465;-59
2023/05/04 10:01:29;;;;;;;14.95;8.55;;;;;;;;;;5073527;28;20056;-60
2023/05/04 10:03:55;;;;;;;12.65;8.07;;;;;;;;;;5073004;28;20044;-60
2023/05/04 10:06:22;;;;;;;11.88;8.52;;;;;;;;;;5073404;28;20020;-59
2023/05/04 10:08:49;;;;;;;13.45;8.95;;;;;;;;;;5072759;28;20028;-59
2023/05/04 10:11:17;;;;;;;17.58;8.93;;;;;;;;;;5073156;28;20021;-59
2023/05/04 10:13:48;;;;;;;15.80;8.27;;;;;;;;;;5071683;28;20286;-58
2023/05/04 10:16:24;;;;;;;15.20;8.90;;;;;;;;;;5071523;28;20016;-57
2023/05/04 10:18:49;;;;;;;13.45;8.40;;;;;;;;;;5072765;28;20028;-59
2023/05/04 10:21:25;;;;;;;16.45;9.85;;;;;;;;;;5072569;28;20028;-59
2023/05/04 10:24:15;;;;;;;14.98;9.02;;;;;;;;;;5072821;28;20051;-59
2023/05/04 10:26:59;;;;;;;16.83;8.85;;;;;;;;;;5071468;28;20126;-59
2023/05/04 10:29:32;;;;;;;12.95;8.73;;;;;;;;;;5072424;28;20052;-60
2023/05/04 10:31:58;;;;;;;14.73;9.13;;;;;;;;;;5072430;28;20021;-60
2023/05/04 10:34:31;;;;;;;18.33;9.38;;;;;;;;;;5072547;28;20096;-59
2023/05/04 10:36:57;;;;;;;16.52;9.10;;;;;;;;;;5072471;28;20495;-59
2023/05/04 10:39:25;;;;;;;18.55;9.35;;;;;;;;;;5072338;28;20035;-59
2023/05/04 10:42:02;;;;;;;15.20;8.88;;;;;;;;;;5072355;28;20032;-60
2023/05/04 10:44:28;;;;;;;15.88;9.13;;;;;;;;;;5072120;28;20031;-60
2023/05/04 10:47:01;;;;;;;16.30;9.20;;;;;;;;;;5072210;28;20021;-61
2023/05/04 10:49:27;;;;;;;12.90;8.43;;;;;;;;;;5072085;28;20028;-60
2023/05/04 10:52:09;;;;;;;14.52;9.02;;;;;;;;;;5071963;28;20028;-60
2023/05/04 10:54:40;;;;;;;17.67;9.25;;;;;;;;;;5072369;28;20070;-60
2023/05/04 10:57:09;;;;;;;13.10;9.15;;;;;;;;;;5072202;28;20025;-59
2023/05/04 10:59:36;;;;;;;15.52;9.07;;;;;;;;;;5072066;28;20024;-60
2023/05/04 11:02:03;;;;;;;16.23;9.27;;;;;;;;;;5071541;28;20032;-60
2023/05/04 11:04:30;;;;;;;15.15;8.82;;;;;;;;;;5071817;28;20035;-60
2023/05/04 11:07:07;;;;;;;18.05;9.77;;;;;;;;;;5071786;28;20021;-60
2023/05/04 11:09:37;;;;;;;17.85;9.18;;;;;;;;;;5072264;28;20063;-60
2023/05/04 11:12:03;;;;;;;14.07;9.60;;;;;;;;;;5071913;28;20028;-60
2023/05/04 11:14:29;;;;;;;14.52;9.23;;;;;;;;;;5071942;28;20051;-60
2023/05/04 11:17:14;;;;;;;13.95;9.10;;;;;;;;;;5071844;28;20095;-60
2023/05/04 11:19:50;;;;;;;14.77;8.60;;;;;;;;;;5070312;28;20503;-60
2023/05/04 11:22:20;;;;;;;11.55;8.73;;;;;;;;;;5071555;28;20066;-60
2023/05/04 11:24:47;;;;;;;14.05;8.73;;;;;;;;;;5071572;28;20099;-60
2023/05/04 11:27:27;;;;;;;12.98;8.95;;;;;;;;;;5071652;28;20031;-60
2023/05/04 11:30:03;;;;;;;14.30;9.45;;;;;;;;;;5069924;28;20053;-59
2023/05/04 11:32:33;;;;;;;15.85;9.13;;;;;;;;;;5071499;28;20500;-60
2023/05/04 11:34:59;;;;;;;14.93;9.25;;;;;;;;;;5070181;28;20503;-61
2023/05/04 11:37:27;;;;;;;13.38;10.07;;;;;;;;;;5071324;28;20115;-61
2023/05/04 11:39:53;;;;;;;13.57;9.18;;;;;;;;;;5071496;28;20039;-60
2023/05/04 11:42:19;;;;;;;13.57;9.15;;;;;;;;;;5071475;28;20024;-60
2023/05/04 11:44:46;;;;;;;19.45;9.68;;;;;;;;;;5071382;28;20028;-60
2023/05/04 11:47:13;;;;;;;13.00;9.00;;;;;;;;;;5071380;28;20263;-59
2023/05/04 11:49:39;;;;;;;15.93;9.63;;;;;;;;;;5071775;28;20028;-59
2023/05/04 11:52:08;;;;;;;15.82;10.00;;;;;;;;;;5071138;28;20020;-59
2023/05/04 11:54:35;;;;;;;14.38;9.93;;;;;;;;;;5071114;28;20089;-59
2023/05/04 11:57:02;;;;;;;15.45;9.48;;;;;;;;;;5069966;28;20026;-59
2023/05/04 11:59:29;;;;;;;12.05;9.07;;;;;;;;;;5071309;28;20389;-60
2023/05/04 12:01:56;;;;;;;13.73;9.02;;;;;;;;;;5071128;28;20021;-60
2023/05/04 12:04:22;;;;;;;12.90;9.70;;;;;;;;;;5071187;28;20432;-60
2023/05/04 12:06:49;;;;;;;13.77;9.63;;;;;;;;;;5071003;28;20021;-60
2023/05/04 12:09:15;;;;;;;11.43;8.88;;;;;;;;;;5071046;28;20021;-60
2023/05/04 12:11:41;;;;;;;15.38;9.07;;;;;;;;;;5071319;28;20028;-60
2023/05/04 12:14:08;;;;;;;13.93;9.52;;;;;;;;;;5072082;28;20420;-60
2023/05/04 12:16:35;;;;;;;15.40;8.90;;;;;;;;;;5075590;28;20019;-59
2023/05/04 12:19:03;;;;;;;13.73;9.43;;;;;;;;;;5074851;28;20062;-59
2023/05/04 12:21:30;;;;;;;14.38;9.02;;;;;;;;;;5074797;28;20218;-59
2023/05/04 12:23:59;;;;;;;14.38;9.75;;;;;;;;;;5075007;28;20731;-59
2023/05/04 12:26:25;;;;;;;14.23;9.40;;;;;;;;;;5074787;28;20106;-59
2023/05/04 12:28:51;;;;;;;12.85;10.38;;;;;;;;;;5074673;28;20048;-59
2023/05/04 12:31:17;;;;;;;15.80;9.63;;;;;;;;;;5074653;28;20085;-59
2023/05/04 12:33:44;;;;;;;13.95;9.60;;;;;;;;;;5074650;28;20033;-59
2023/05/04 12:36:10;;;;;;;15.07;9.50;;;;;;;;;;5074771;28;20052;-59
2023/05/04 12:38:36;;;;;;;16.77;9.98;;;;;;;;;;5073351;28;20486;-59
2023/05/04 12:41:03;;;;;;;19.13;11.45;;;;;;;;;;5074758;28;20037;-60
2023/05/04 12:43:32;;;;;;;14.57;10.45;;;;;;;;;;5074844;28;20032;-60
2023/05/04 12:45:58;;;;;;;15.07;10.10;;;;;;;;;;5074446;28;20028;-59
2023/05/04 12:48:30;;;;;;;16.05;10.70;;;;;;;;;;5074615;28;20078;-60
2023/05/04 12:50:56;;;;;;;;;;;;;;;;;;5074825;28;20469;-59
2023/05/04 12:53:26;;;;;;;18.75;10.48;;;;;;;;;;5073125;28;19908;-59
2023/05/04 12:55:53;;;;;;;17.70;10.88;;;;;;;;;;5074307;28;20032;-59
2023/05/04 12:58:20;;;;;;;17.13;10.68;;;;;;;;;;5073233;28;20038;-59
2023/05/04 13:00:46;;;;;;;16.40;10.18;;;;;;;;;;5074073;28;20025;-59
2023/05/04 13:03:12;;;;;;;16.30;10.82;;;;;;;;;;5072847;28;20036;-59
2023/05/04 13:05:38;;;;;;;19.67;10.68;;;;;;;;;;5074051;28;20377;-59
2023/05/04 13:08:04;;;;;;;17.50;10.85;;;;;;;;;;5074241;28;20020;-60
2023/05/04 13:10:30;;;;;;;18.27;10.75;;;;;;;;;;5074180;28;20055;-59
2023/05/04 13:12:56;;;;;;;21.55;10.93;;;;;;;;;;5074148;28;20031;-59
2023/05/04 13:15:22;;;;;;;15.70;10.23;;;;;;;;;;5074248;28;20020;-59
2023/05/04 13:17:49;;;;;;;15.60;10.10;;;;;;;;;;5073988;28;20084;-59
2023/05/04 13:20:15;;;;;;;14.20;10.70;;;;;;;;;;5073589;28;20434;-60
2023/05/04 13:22:41;;;;;;;20.70;10.25;;;;;;;;;;5074093;28;20033;-60
2023/05/04 13:25:07;;;;;;;14.85;9.77;;;;;;;;;;5073482;28;20025;-60
2023/05/04 13:27:34;;;;;;;16.83;8.80;;;;;;;;;;5073708;28;20354;-60
2023/05/04 13:30:01;;;;;;;12.55;8.90;;;;;;;;;;5073686;28;20051;-60
2023/05/04 13:32:28;;;;;;;11.32;8.38;;;;;;;;;;5073655;28;20066;-60
2023/05/04 13:34:54;;;;;;;9.93;8.05;;;;;;;;;;5073764;28;20441;-60
2023/05/04 13:37:20;;;;;;;10.23;7.55;;;;;;;;;;5073690;28;20031;-60
2023/05/04 13:39:46;;;;;;;13.57;7.75;;;;;;;;;;5073734;28;20547;-60
2023/05/04 13:42:12;;;;;;;11.05;7.90;;;;;;;;;;5073685;28;20111;-60
2023/05/04 13:44:44;;;;;;;11.32;7.82;;;;;;;;;;5073330;28;20111;-60
2023/05/04 13:47:11;;;;;;;10.98;7.25;;;;;;;;;;5073557;28;20458;-61
2023/05/04 13:49:37;;;;;;;9.02;7.32;;;;;;;;;;5073514;28;20029;-61
2023/05/04 13:52:04;;;;;;;8.43;7.50;;;;;;;;;;5073439;28;20021;-61
2023/05/04 13:54:30;;;;;;;7.35;6.65;;;;;;;;;;5073409;28;20025;-61
2023/05/04 13:56:56;;;;;;;8.65;6.07;;;;;;;;;;5073342;28;20469;-61
2023/05/04 13:59:22;;;;;;;9.40;6.50;;;;;;;;;;5073398;28;20021;-61
2023/05/04 14:01:48;;;;;;;7.55;5.78;;;;;;;;;;5073282;28;20172;-60
2023/05/04 14:04:14;;;;;;;8.18;6.80;;;;;;;;;;5072933;28;20040;-60
2023/05/04 14:06:40;;;;;;;9.48;6.22;;;;;;;;;;5072223;28;20031;-60
2023/05/04 14:09:06;;;;;;;7.28;6.03;;;;;;;;;;5073313;28;20029;-60
2023/05/04 14:11:32;;;;;;;10.13;6.88;;;;;;;;;;5073163;28;20079;-60
2023/05/04 14:13:58;;;;;;;9.65;7.03;;;;;;;;;;5072891;28;20532;-59
2023/05/04 14:16:25;;;;;;;9.32;6.90;;;;;;;;;;5073142;28;20104;-60
2023/05/04 14:18:51;;;;;;;11.95;6.63;;;;;;;;;;5072867;28;20547;-60
2023/05/04 14:21:17;;;;;;;10.10;7.30;;;;;;;;;;5072712;28;20028;-60